Time;durP1;ratioP1;P1;durP2;ratioP2;P2;SDS_P1;SDS_P2;PMS_P1;PMS_P2;Temp;Humidity;BMP_temperature;BMP_pressure;BME280_temperature;BME280_humidity;BME280_pressure;Samples;Min_cycle;Max_cycle;Signal;HPM_P1;HPM_P2
2022/08/23 00:01:53;;;;;;;4.03;3.63;;;;;;;17.78;60.10;100960.88;5062468;28;20107;-27
2022/08/23 00:04:28;;;;;;;3.83;3.50;;;;;;;17.78;60.03;100958.22;5067633;28;20138;-27
2022/08/23 00:06:54;;;;;;;4.10;3.80;;;;;;;17.74;60.11;100956.59;5067063;28;20027;-27
2022/08/23 00:09:22;;;;;;;4.32;4.03;;;;;;;17.74;60.09;100953.94;5069548;28;20025;-27
2022/08/23 00:11:50;;;;;;;4.28;3.97;;;;;;;17.67;60.34;100947.94;5063881;28;20048;-27
2022/08/23 00:14:19;;;;;;;4.40;4.00;;;;;;;17.65;60.20;100948.94;5063771;28;20515;-27
2022/08/23 00:16:45;;;;;;;5.13;3.53;;;;;;;17.62;60.31;100947.25;5064600;28;20040;-27
2022/08/23 00:19:13;;;;;;;4.55;4.15;;;;;;;17.57;60.34;100944.72;5062001;28;20044;-27
2022/08/23 00:21:39;;;;;;;4.70;4.30;;;;;;;17.56;60.29;100940.31;5065497;28;20103;-26
2022/08/23 00:24:06;;;;;;;10.57;3.97;;;;;;;17.52;60.35;100946.69;5066848;28;20031;-25
2022/08/23 00:26:53;;;;;;;4.20;3.80;;;;;;;17.48;60.60;100945.06;5056985;28;20029;-28
2022/08/23 00:29:19;;;;;;;4.40;4.00;;;;;;;17.49;60.57;100953.91;5067384;28;20111;-27
2022/08/23 00:31:44;;;;;;;3.72;3.42;;;;;;;17.42;60.86;100953.25;5062516;28;20112;-27
2022/08/23 00:34:11;;;;;;;4.45;3.80;;;;;;;17.38;60.61;100956.94;5068709;28;20020;-27
2022/08/23 00:36:37;;;;;;;4.85;3.80;;;;;;;17.36;60.75;100956.09;5064198;28;20066;-27
2022/08/23 00:39:03;;;;;;;4.30;3.90;;;;;;;17.33;60.59;100953.56;5059002;28;20878;-27
2022/08/23 00:41:28;;;;;;;4.93;3.80;;;;;;;17.31;60.77;100951.78;5046248;28;20060;-27
2022/08/23 00:49:44;;;;;;;6.70;4.38;;;;;;;17.20;60.80;100953.94;5000388;28;20039;-27
2022/08/23 00:52:12;;;;;;;4.15;3.85;;;;;;;17.16;60.77;100949.63;5061381;28;20075;-27
2022/08/23 00:54:40;;;;;;;3.97;3.67;;;;;;;17.11;61.06;100941.78;5062604;28;20082;-27
2022/08/23 00:57:09;;;;;;;4.63;4.22;;;;;;;17.09;60.84;100945.41;5085937;28;20035;-27
2022/08/23 00:59:34;;;;;;;4.28;3.88;;;;;;;17.04;60.75;100941.09;5066756;28;20472;-27
2022/08/23 01:02:00;;;;;;;4.30;3.85;;;;;;;17.03;60.84;100944.69;5062325;28;20035;-27
2022/08/23 01:04:28;;;;;;;3.95;3.65;;;;;;;17.00;60.97;100944.75;5062683;28;20063;-28
2022/08/23 01:06:58;;;;;;;4.38;4.00;;;;;;;16.97;61.16;100952.00;5061487;28;20024;-27
2022/08/23 01:09:24;;;;;;;4.70;3.88;;;;;;;16.95;60.90;100946.72;5060370;28;20028;-27
2022/08/23 01:11:58;;;;;;;4.13;3.83;;;;;;;16.90;61.10;100943.31;5062707;28;20102;-27
2022/08/23 01:14:53;;;;;;;4.40;4.00;;;;;;;16.84;60.93;100946.19;5060050;28;20032;-27
2022/08/23 01:17:22;;;;;;;4.55;4.15;;;;;;;16.81;61.01;100947.16;5060987;28;20127;-27
2022/08/23 01:19:54;;;;;;;6.72;4.18;;;;;;;16.75;61.03;100942.88;5065909;28;20025;-27
2022/08/23 01:22:23;;;;;;;3.88;3.58;;;;;;;16.75;61.17;100939.34;5060108;28;20029;-27
2022/08/23 01:24:49;;;;;;;4.57;4.13;;;;;;;16.71;61.11;100941.25;5059744;28;20518;-27
2022/08/23 01:27:14;;;;;;;4.07;3.78;;;;;;;16.68;61.27;100938.66;5064448;28;20025;-27
2022/08/23 01:29:40;;;;;;;4.50;4.10;;;;;;;16.64;61.23;100947.66;5068239;28;20025;-27
2022/08/23 01:32:07;;;;;;;4.35;3.85;;;;;;;16.61;61.17;100945.94;5068208;28;20434;-27
2022/08/23 01:34:32;;;;;;;4.57;4.18;;;;;;;16.57;61.57;100954.09;5062148;28;20040;-27
2022/08/23 01:36:58;;;;;;;4.18;3.78;;;;;;;16.54;61.41;100953.25;5068334;28;20036;-27
2022/08/23 01:39:23;;;;;;;4.28;3.88;;;;;;;16.50;61.32;100954.25;5061221;28;20031;-27
2022/08/23 01:41:50;;;;;;;3.97;3.67;;;;;;;16.47;61.38;100951.69;5066661;28;20128;-27
2022/08/23 01:44:15;;;;;;;4.95;4.50;;;;;;;16.45;61.69;100955.31;5061292;28;20023;-27
2022/08/23 01:46:43;;;;;;;4.60;4.20;;;;;;;16.43;61.50;100955.34;5068062;28;20104;-29
2022/08/23 01:49:09;;;;;;;4.07;3.78;;;;;;;16.37;61.65;100945.75;5061269;28;20033;-29
2022/08/23 01:51:34;;;;;;;4.35;3.88;;;;;;;16.37;61.61;100947.56;5060700;28;20017;-27
2022/08/23 01:53:59;;;;;;;4.15;3.75;;;;;;;16.32;61.62;100960.13;5067554;28;20077;-27
2022/08/23 01:56:25;;;;;;;4.10;3.70;;;;;;;16.31;61.64;100961.03;5064670;28;20076;-27
2022/08/23 01:58:50;;;;;;;4.32;3.95;;;;;;;16.26;61.75;100962.06;5056933;28;20051;-27
2022/08/23 02:01:17;;;;;;;3.70;3.40;;;;;;;16.26;61.65;100959.38;5058986;28;20040;-27
2022/08/23 02:03:43;;;;;;;5.53;3.80;;;;;;;16.24;61.78;100960.34;5068491;28;20025;-27
2022/08/23 02:06:08;;;;;;;4.45;4.05;;;;;;;16.19;61.83;100957.81;5062028;28;20396;-27
2022/08/23 02:11:21;;;;;;;4.85;4.30;;;;;;;16.12;62.13;100966.88;5056353;28;20124;-27
2022/08/23 02:13:47;;;;;;;3.50;3.20;;;;;;;16.09;61.99;100964.31;5061821;28;20021;-27
2022/08/23 02:16:13;;;;;;;4.18;3.85;;;;;;;16.07;61.93;100960.81;5057736;28;20277;-27
2022/08/23 02:18:38;;;;;;;4.28;3.88;;;;;;;16.06;62.06;100967.03;5063730;28;20055;-27
2022/08/23 02:21:04;;;;;;;4.03;3.72;;;;;;;16.04;61.94;100967.06;5059950;28;20033;-27
2022/08/23 02:23:29;;;;;;;4.20;3.90;;;;;;;16.01;62.03;100968.03;5055969;28;20142;-27
2022/08/23 02:25:55;;;;;;;3.97;3.58;;;;;;;15.98;62.05;100962.84;5065359;28;20020;-26
2022/08/23 02:28:22;;;;;;;3.88;3.53;;;;;;;15.97;62.13;100965.53;5062820;28;20013;-27
2022/08/23 02:30:48;;;;;;;3.97;3.67;;;;;;;15.95;62.04;100957.59;5063423;28;20104;-27
2022/08/23 02:33:14;;;;;;;3.80;3.50;;;;;;;15.93;62.14;100967.34;5067302;28;20032;-27
2022/08/23 02:35:40;;;;;;;4.18;3.88;;;;;;;15.88;62.04;100956.81;5063661;28;20051;-25
2022/08/23 02:38:10;;;;;;;4.55;3.95;;;;;;;15.85;62.27;100956.94;5058525;28;20024;-27
2022/08/23 02:40:36;;;;;;;4.90;4.13;;;;;;;15.83;62.23;100955.19;5063720;28;20025;-27
2022/08/23 02:43:02;;;;;;;3.90;3.60;;;;;;;15.78;62.28;100961.50;5058583;28;20021;-27
2022/08/23 02:45:27;;;;;;;3.72;3.42;;;;;;;15.77;62.34;100957.13;5065690;28;20033;-27
2022/08/23 02:47:54;;;;;;;3.55;3.25;;;;;;;15.73;62.17;100960.78;5066294;28;20247;-27
2022/08/23 02:50:20;;;;;;;3.95;3.65;;;;;;;15.73;62.62;100960.78;5062201;28;20373;-27
2022/08/23 02:52:45;;;;;;;3.33;3.10;;;;;;;15.71;62.24;100961.72;5063084;28;20082;-27
2022/08/23 02:55:10;;;;;;;3.00;2.80;;;;;;;15.67;62.40;100960.94;5062366;28;20028;-27
2022/08/23 02:57:38;;;;;;;3.60;3.30;;;;;;;15.66;62.41;100964.50;5060515;28;20040;-27
2022/08/23 03:00:05;;;;;;;3.20;3.00;;;;;;;15.61;62.41;100953.13;5063510;28;20523;-27
2022/08/23 03:02:31;;;;;;;3.47;3.28;;;;;;;15.58;62.45;100956.75;5064122;28;20032;-26
2022/08/23 03:04:56;;;;;;;3.50;3.20;;;;;;;15.54;62.63;100960.34;5063870;28;20496;-27
2022/08/23 03:07:22;;;;;;;3.22;2.90;;;;;;;15.52;62.67;100957.78;5058122;28;20107;-27
2022/08/23 03:09:47;;;;;;;4.15;3.35;;;;;;;15.49;62.70;100957.84;5064779;28;20116;-27
2022/08/23 03:12:13;;;;;;;3.60;3.30;;;;;;;15.46;62.76;100959.69;5060273;28;20500;-27
2022/08/23 03:14:39;;;;;;;3.65;3.35;;;;;;;15.46;62.77;100962.34;5061709;28;20050;-27
2022/08/23 03:17:06;;;;;;;3.88;3.58;;;;;;;15.46;62.70;100957.91;5062694;28;20454;-27
2022/08/23 03:19:31;;;;;;;3.55;3.25;;;;;;;15.42;62.43;100950.94;5060706;28;20035;-27
2022/08/23 03:21:57;;;;;;;3.65;3.45;;;;;;;15.40;62.58;100968.69;5059206;28;20500;-27
2022/08/23 03:24:22;;;;;;;3.95;3.60;;;;;;;15.35;62.70;100962.63;5051322;28;20028;-27
2022/08/23 03:26:47;;;;;;;3.90;3.60;;;;;;;15.32;62.58;100962.69;5064697;28;20024;-27
2022/08/23 03:29:13;;;;;;;4.10;3.80;;;;;;;15.28;62.48;100967.22;5063149;28;20492;-27
2022/08/23 03:31:40;;;;;;;5.30;4.80;;;;;;;15.25;62.63;100967.28;5059320;28;20480;-27
2022/08/23 03:34:05;;;;;;;4.43;4.03;;;;;;;15.23;62.75;100963.78;5062205;28;20057;-27
2022/08/23 03:36:31;;;;;;;5.07;4.00;;;;;;;15.20;62.84;100974.50;5061415;28;20068;-27
2022/08/23 03:38:56;;;;;;;4.32;4.03;;;;;;;15.19;62.92;100973.63;5061025;28;20017;-27
2022/08/23 03:41:22;;;;;;;4.45;4.15;;;;;;;15.17;62.94;100970.13;5060269;28;20032;-27
2022/08/23 03:43:47;;;;;;;4.47;4.10;;;;;;;15.13;62.72;100963.13;5061002;28;20020;-27
2022/08/23 03:46:21;;;;;;;4.60;4.20;;;;;;;15.07;63.02;100968.59;5060551;28;20020;-27
2022/08/23 03:48:49;;;;;;;4.10;3.80;;;;;;;15.04;62.82;100971.31;5059692;28;20470;-27
2022/08/23 03:51:14;;;;;;;4.00;3.70;;;;;;;15.03;62.88;100969.59;5062237;28;20033;-27
2022/08/23 03:53:43;;;;;;;4.20;3.90;;;;;;;15.01;63.10;100973.13;5062814;28;20246;-27
2022/08/23 03:56:09;;;;;;;4.28;3.97;;;;;;;14.95;63.11;100981.25;5055557;28;20104;-27
2022/08/23 03:58:34;;;;;;;4.05;3.72;;;;;;;14.95;63.15;100989.22;5061434;28;20107;-27
2022/08/23 04:00:59;;;;;;;4.47;4.18;;;;;;;14.93;63.07;100976.84;5055645;28;20044;-28
2022/08/23 04:03:25;;;;;;;4.38;4.05;;;;;;;14.89;63.25;100976.06;5067601;28;20036;-27
2022/08/23 04:05:51;;;;;;;4.10;3.80;;;;;;;14.89;63.01;100981.38;5061197;28;20031;-27
2022/08/23 04:08:16;;;;;;;4.18;3.60;;;;;;;14.86;63.07;100989.41;5062992;28;20373;-27
2022/08/23 04:10:42;;;;;;;3.88;3.58;;;;;;;14.85;63.51;100985.00;5060758;28;20090;-27
2022/08/23 04:13:07;;;;;;;4.25;3.85;;;;;;;14.82;63.18;100979.78;5060224;28;20146;-28
2022/08/23 04:15:33;;;;;;;3.90;3.60;;;;;;;14.79;63.19;100979.81;5064958;28;20040;-27
2022/08/23 04:17:58;;;;;;;4.10;3.80;;;;;;;14.75;63.15;100986.97;5058848;28;20416;-27
2022/08/23 04:20:24;;;;;;;4.05;3.75;;;;;;;14.73;63.35;100981.69;5066336;28;20365;-27
2022/08/23 04:22:51;;;;;;;3.97;3.58;;;;;;;14.72;63.29;100985.25;5066270;28;20044;-26
2022/08/23 04:25:16;;;;;;;3.97;3.70;;;;;;;14.70;63.30;100986.16;5064482;28;20147;-27
2022/08/23 04:27:41;;;;;;;3.90;3.60;;;;;;;14.69;63.59;100998.59;5063580;28;20100;-27
2022/08/23 04:30:07;;;;;;;4.07;3.78;;;;;;;14.65;63.41;101002.22;5065222;28;20154;-27
2022/08/23 04:32:32;;;;;;;4.22;3.92;;;;;;;14.63;63.43;101004.91;5057226;28;20048;-27
2022/08/23 04:34:58;;;;;;;4.47;4.07;;;;;;;14.63;63.38;101001.38;5060728;28;20357;-27
2022/08/23 04:37:23;;;;;;;4.97;4.18;;;;;;;14.63;63.34;100999.59;5061754;28;20067;-27
2022/08/23 04:42:34;;;;;;;5.03;4.30;;;;;;;14.61;63.40;101008.50;5058453;28;20116;-27
2022/08/23 04:45:00;;;;;;;4.80;4.43;;;;;;;14.61;63.51;101005.84;5064426;28;21080;-27
2022/08/23 04:47:25;;;;;;;4.78;4.38;;;;;;;14.58;63.44;101016.53;5061249;28;20392;-27
2022/08/23 04:49:51;;;;;;;4.63;4.22;;;;;;;14.54;63.60;101012.19;5063002;28;20087;-27
2022/08/23 04:52:16;;;;;;;4.35;3.97;;;;;;;14.53;63.66;101013.94;5060994;28;20033;-27
2022/08/23 04:54:41;;;;;;;4.03;3.67;;;;;;;14.52;63.81;101012.22;5067446;28;20074;-27
2022/08/23 04:57:07;;;;;;;4.25;3.88;;;;;;;14.49;63.75;101005.19;5061837;28;20067;-27
2022/08/23 04:59:32;;;;;;;4.47;4.07;;;;;;;14.52;63.57;101021.94;5057461;28;20053;-27
2022/08/23 05:01:57;;;;;;;6.50;4.38;;;;;;;14.49;63.74;101015.81;5058262;28;20770;-28
2022/08/23 05:04:23;;;;;;;4.93;4.45;;;;;;;14.46;63.66;101021.16;5063802;28;20029;-28
2022/08/23 05:06:48;;;;;;;5.32;4.40;;;;;;;14.45;63.79;101024.75;5060412;28;20099;-27
2022/08/23 05:09:14;;;;;;;4.70;4.30;;;;;;;14.46;63.47;101023.81;5062333;28;20035;-27
2022/08/23 05:11:39;;;;;;;4.53;4.03;;;;;;;14.45;63.70;101029.16;5059533;28;20044;-27
2022/08/23 05:14:05;;;;;;;4.88;4.38;;;;;;;14.45;63.75;101023.84;5059992;28;20099;-27
2022/08/23 05:16:30;;;;;;;5.88;4.57;;;;;;;14.46;63.76;101037.09;5064045;28;20020;-27
2022/08/23 05:18:56;;;;;;;5.43;4.10;;;;;;;14.43;63.87;101039.81;5060542;28;20472;-27
2022/08/23 05:21:22;;;;;;;4.72;4.22;;;;;;;14.45;63.61;101038.00;5065409;28;20093;-27
2022/08/23 05:23:48;;;;;;;4.30;3.85;;;;;;;14.46;63.77;101042.41;5061768;28;20678;-27
2022/08/23 05:26:13;;;;;;;4.50;4.20;;;;;;;14.47;63.74;101038.84;5064579;28;20174;-27
2022/08/23 05:28:43;;;;;;;5.22;4.72;;;;;;;14.45;63.80;101030.03;5080736;28;20035;-27
2022/08/23 05:31:15;;;;;;;5.00;4.32;;;;;;;14.50;63.93;101035.25;5066651;28;20056;-27
2022/08/23 05:33:41;;;;;;;5.18;4.63;;;;;;;14.52;64.14;101030.78;5059768;28;20021;-27
2022/08/23 05:36:07;;;;;;;6.28;4.60;;;;;;;14.55;64.11;101033.38;5068914;28;20136;-27
2022/08/23 05:38:33;;;;;;;5.20;4.53;;;;;;;14.59;63.88;101036.84;5063230;28;20029;-27
2022/08/23 05:41:01;;;;;;;4.85;4.45;;;;;;;14.60;63.95;101035.94;5068990;28;20025;-27
2022/08/23 05:43:27;;;;;;;5.22;4.63;;;;;;;14.62;63.63;101042.09;5063046;28;20031;-27
2022/08/23 05:45:59;;;;;;;5.05;4.43;;;;;;;14.67;63.85;101045.53;5060351;28;20035;-27
2022/08/23 05:48:25;;;;;;;5.32;4.82;;;;;;;14.70;63.85;101050.78;5060504;28;20634;-27
2022/08/23 05:50:50;;;;;;;5.45;4.80;;;;;;;14.73;63.82;101044.53;5067406;28;20056;-27
2022/08/23 05:53:15;;;;;;;5.25;4.53;;;;;;;14.74;63.78;101041.84;5059158;28;20452;-27
2022/08/23 05:55:41;;;;;;;5.13;4.70;;;;;;;14.83;63.84;101037.25;5069360;28;20487;-27
2022/08/23 05:58:06;;;;;;;5.40;4.90;;;;;;;14.88;63.83;101044.22;5059216;28;20496;-27
2022/08/23 06:00:31;;;;;;;5.45;5.00;;;;;;;14.96;63.73;101040.53;5059868;28;20484;-27
2022/08/23 06:02:57;;;;;;;6.53;5.18;;;;;;;15.06;63.90;101039.44;5060375;28;20078;-27
2022/08/23 06:05:22;;;;;;;5.53;5.03;;;;;;;15.03;64.67;101051.94;5059008;28;20025;-27
2022/08/23 06:07:48;;;;;;;5.47;4.90;;;;;;;15.05;64.39;101044.78;5067545;28;20023;-27
2022/08/23 06:10:13;;;;;;;5.80;5.30;;;;;;;15.11;63.94;101050.81;5066634;28;20380;-27
2022/08/23 06:12:39;;;;;;;6.10;4.88;;;;;;;15.20;63.72;101048.91;5065888;28;20156;-27
2022/08/23 06:15:04;;;;;;;5.45;4.93;;;;;;;15.21;63.80;101050.63;5062665;28;20028;-27
2022/08/23 06:17:29;;;;;;;5.45;4.95;;;;;;;15.31;63.46;101051.31;5060298;28;20026;-27
2022/08/23 06:19:55;;;;;;;5.85;5.30;;;;;;;15.35;63.50;101050.31;5064567;28;20032;-27
2022/08/23 06:22:20;;;;;;;5.15;4.75;;;;;;;15.41;63.32;101052.84;5062294;28;20066;-27
2022/08/23 06:24:46;;;;;;;5.40;4.95;;;;;;;15.47;63.43;101052.69;5067765;28;20425;-27
2022/08/23 06:27:12;;;;;;;6.18;5.18;;;;;;;15.56;63.35;101056.03;5064575;28;20021;-26
2022/08/23 06:29:37;;;;;;;5.35;4.95;;;;;;;15.60;63.29;101060.34;5063489;28;20037;-27
2022/08/23 06:32:04;;;;;;;5.45;4.88;;;;;;;15.67;63.21;101067.28;5060685;28;20389;-27
2022/08/23 06:34:35;;;;;;;6.53;5.20;;;;;;;15.73;63.43;101058.28;5069274;28;20021;-27
2022/08/23 06:37:03;;;;;;;6.55;5.30;;;;;;;15.84;63.03;101060.69;5060289;28;20108;-27
2022/08/23 06:39:30;;;;;;;5.53;4.80;;;;;;;15.90;63.14;101060.50;5065060;28;20056;-26
2022/08/23 06:41:59;;;;;;;6.05;4.95;;;;;;;15.99;63.61;101063.00;5061953;28;20031;-27
2022/08/23 06:44:26;;;;;;;5.60;5.10;;;;;;;16.06;63.37;101069.03;5063851;28;20033;-27
2022/08/23 06:46:51;;;;;;;5.30;4.90;;;;;;;16.14;63.37;101069.69;5054591;28;20372;-27
2022/08/23 06:49:17;;;;;;;6.15;5.55;;;;;;;16.21;63.58;101070.38;5063895;28;20048;-27
2022/08/23 06:51:45;;;;;;;6.63;4.90;;;;;;;16.29;63.38;101065.75;5063788;28;21298;-27
2022/08/23 06:54:13;;;;;;;5.60;4.88;;;;;;;16.37;63.21;101067.34;5082343;28;20036;-27
2022/08/23 06:56:40;;;;;;;5.72;5.22;;;;;;;16.47;63.17;101076.81;5061302;28;20056;-27
2022/08/23 06:59:06;;;;;;;6.25;5.63;;;;;;;16.55;62.94;101071.28;5060508;28;20466;-27
2022/08/23 07:01:56;;;;;;;6.57;4.78;;;;;;;16.66;62.77;101070.97;5059820;28;20120;-27
2022/08/23 07:04:28;;;;;;;6.25;4.50;;;;;;;16.74;62.74;101074.28;5062178;28;20024;-27
2022/08/23 07:06:54;;;;;;;5.15;4.75;;;;;;;16.84;62.89;101074.03;5062294;28;20443;-27
2022/08/23 07:09:20;;;;;;;4.97;4.38;;;;;;;16.91;62.50;101070.28;5055886;28;20021;-27
2022/08/23 07:11:45;;;;;;;7.03;5.10;;;;;;;17.03;62.58;101077.00;5062744;28;20043;-27
2022/08/23 07:14:15;;;;;;;5.43;4.68;;;;;;;17.12;63.66;101078.56;5055106;28;20066;-27
2022/08/23 07:16:44;;;;;;;5.30;4.90;;;;;;;17.25;63.73;101069.28;5058474;28;20025;-27
2022/08/23 07:19:10;;;;;;;7.05;4.93;;;;;;;17.35;63.39;101075.22;5059493;28;20017;-27
2022/08/23 07:21:36;;;;;;;5.90;4.35;;;;;;;17.43;62.90;101074.97;5063709;28;20388;-27
2022/08/23 07:24:01;;;;;;;5.75;4.25;;;;;;;17.55;64.47;101077.22;5059498;28;20469;-27
2022/08/23 07:26:27;;;;;;;5.05;4.63;;;;;;;17.65;62.74;101075.16;5057030;28;20025;-27
2022/08/23 07:28:52;;;;;;;4.28;3.95;;;;;;;17.77;63.62;101087.19;5061010;28;20651;-27
2022/08/23 07:31:22;;;;;;;4.80;4.15;;;;;;;17.91;64.12;101088.56;5056699;28;20013;-26
2022/08/23 07:33:49;;;;;;;6.15;4.55;;;;;;;18.05;62.95;101080.97;5052741;28;20030;-27
2022/08/23 07:36:17;;;;;;;5.20;4.70;;;;;;;18.17;63.69;101085.03;5060604;28;20408;-27
2022/08/23 07:38:43;;;;;;;5.05;4.55;;;;;;;18.30;63.46;101087.25;5066850;28;20361;-27
2022/08/23 07:41:10;;;;;;;4.25;3.85;;;;;;;18.43;63.24;101090.38;5062457;28;20397;-27
2022/08/23 07:43:35;;;;;;;4.55;3.75;;;;;;;18.59;63.23;101090.69;5060566;28;20388;-27
2022/08/23 07:46:01;;;;;;;4.93;3.42;;;;;;;18.77;63.09;101082.94;5058646;28;20029;-27
2022/08/23 07:48:26;;;;;;;3.80;3.50;;;;;;;18.87;63.68;101078.13;5063598;28;20024;-27
2022/08/23 07:50:52;;;;;;;4.13;3.72;;;;;;;19.03;62.06;101078.41;5062652;28;20099;-26
2022/08/23 07:53:18;;;;;;;4.00;3.67;;;;;;;19.19;62.62;101084.94;5056909;28;20036;-27
2022/08/23 07:55:43;;;;;;;3.95;3.35;;;;;;;19.28;62.98;101085.50;5064842;28;20082;-27
2022/08/23 07:58:09;;;;;;;4.20;3.72;;;;;;;19.33;63.62;101080.84;5058812;28;20086;-27
2022/08/23 08:00:34;;;;;;;4.05;3.67;;;;;;;19.53;62.76;101079.16;5062098;28;20024;-27
2022/08/23 08:03:00;;;;;;;4.43;3.25;;;;;;;19.71;61.52;101080.25;5054018;28;20028;-27
2022/08/23 08:05:25;;;;;;;4.05;3.65;;;;;;;19.85;62.71;101079.66;5059525;28;20496;-27
2022/08/23 08:07:50;;;;;;;4.03;3.63;;;;;;;19.92;62.25;101078.47;5062498;28;20013;-27
2022/08/23 08:10:16;;;;;;;4.32;4.03;;;;;;;20.09;61.50;101085.81;5058945;28;20052;-27
2022/08/23 08:12:41;;;;;;;3.42;3.10;;;;;;;20.18;62.03;101089.94;5055581;28;20054;-27
2022/08/23 08:15:07;;;;;;;4.70;3.50;;;;;;;20.31;62.35;101084.88;5059286;28;20131;-27
2022/08/23 08:17:33;;;;;;;3.85;3.45;;;;;;;20.46;61.69;101085.16;5064690;28;20068;-27
2022/08/23 08:19:58;;;;;;;3.50;3.20;;;;;;;20.67;62.12;101083.31;5063856;28;20450;-28
2022/08/23 08:22:23;;;;;;;3.80;3.00;;;;;;;20.81;61.11;101082.69;5064991;28;20033;-27
2022/08/23 08:24:49;;;;;;;5.13;3.08;;;;;;;21.00;61.13;101092.59;5061814;28;20481;-27
2022/08/23 08:27:14;;;;;;;5.20;3.30;;;;;;;21.01;61.07;101091.66;5070078;28;20028;-27
2022/08/23 08:29:42;;;;;;;6.32;3.22;;;;;;;21.15;60.73;101089.19;5067942;28;20028;-27
2022/08/23 08:32:08;;;;;;;3.17;2.97;;;;;;;21.31;60.68;101092.97;5066386;28;20162;-27
2022/08/23 08:34:34;;;;;;;3.03;2.83;;;;;;;21.48;60.28;101090.31;5068710;28;20066;-27
2022/08/23 08:36:59;;;;;;;5.30;3.33;;;;;;;21.58;59.38;101085.41;5062123;28;20480;-27
2022/08/23 08:39:28;;;;;;;3.47;3.17;;;;;;;21.70;59.74;101091.09;5066003;28;20126;-27
2022/08/23 08:42:03;;;;;;;3.50;3.20;;;;;;;21.86;59.90;101089.41;5070076;28;20119;-27
2022/08/23 08:44:55;;;;;;;3.13;2.83;;;;;;;21.97;59.48;101080.81;5061310;28;20396;-27
2022/08/23 08:47:33;;;;;;;3.53;2.85;;;;;;;22.12;59.08;101087.22;5060250;28;20023;-27
2022/08/23 08:50:05;;;;;;;4.60;2.80;;;;;;;22.26;59.09;101081.13;5045375;28;20052;-27
2022/08/23 08:52:42;;;;;;;3.67;2.70;;;;;;;22.36;58.52;101084.19;5063957;28;20116;-25
2022/08/23 08:55:12;;;;;;;4.40;2.45;;;;;;;22.48;58.33;101089.88;5061917;28;20081;-27
2022/08/23 08:57:41;;;;;;;5.95;3.35;;;;;;;22.63;58.22;101090.91;5064748;28;20029;-27
2022/08/23 09:00:13;;;;;;;3.70;2.70;;;;;;;22.77;58.29;101085.66;5065243;28;20027;-27
2022/08/23 09:02:39;;;;;;;2.80;2.60;;;;;;;22.89;57.50;101092.19;5067541;28;20484;-28
2022/08/23 09:05:10;;;;;;;2.92;2.75;;;;;;;23.07;57.76;101078.66;5064583;28;20040;-27
2022/08/23 09:07:57;;;;;;;2.72;2.53;;;;;;;23.22;57.66;101087.72;5066272;28;20668;-28
2022/08/23 09:10:37;;;;;;;3.40;2.67;;;;;;;23.36;57.08;101076.19;5061795;28;20511;-28
2022/08/23 09:13:24;;;;;;;3.85;2.47;;;;;;;23.48;56.84;101081.81;5061466;28;20020;-27
2022/08/23 09:16:11;;;;;;;3.35;2.45;;;;;;;23.56;56.06;101084.94;5068388;28;20025;-28
2022/08/23 09:18:37;;;;;;;2.45;2.25;;;;;;;23.65;56.28;101084.44;5069058;28;20569;-28
2022/08/23 09:21:05;;;;;;;2.92;2.20;;;;;;;23.74;56.31;101083.00;5069627;28;20036;-28
2022/08/23 09:23:47;;;;;;;3.28;2.33;;;;;;;23.88;56.46;101079.53;5062735;28;20032;-27
2022/08/23 09:26:18;;;;;;;3.22;2.67;;;;;;;23.97;56.57;101083.47;5061025;28;20031;-27
2022/08/23 09:28:44;;;;;;;2.55;2.35;;;;;;;24.05;56.48;101081.19;5058054;28;20059;-27
2022/08/23 09:31:10;;;;;;;2.85;2.38;;;;;;;24.13;55.99;101072.69;5061719;28;20024;-28
2022/08/23 09:33:42;;;;;;;2.72;1.98;;;;;;;24.21;55.81;101086.53;5065857;28;20029;-28
2022/08/23 09:36:24;;;;;;;2.40;2.20;;;;;;;24.31;55.72;101084.16;5065933;28;20083;-28
2022/08/23 09:38:58;;;;;;;3.97;2.50;;;;;;;24.37;55.29;101087.47;5058964;28;20530;-28
2022/08/23 09:41:47;;;;;;;2.88;1.95;;;;;;;24.44;55.31;101075.34;5063131;28;20023;-28
2022/08/23 09:44:15;;;;;;;2.22;2.08;;;;;;;24.62;55.62;101067.94;5060310;28;20028;-28
2022/08/23 09:46:41;;;;;;;2.83;2.40;;;;;;;24.73;55.49;101070.81;5067055;28;20020;-28
2022/08/23 09:49:29;;;;;;;2.88;2.50;;;;;;;24.84;54.95;101069.28;5062099;28;20021;-28
2022/08/23 09:51:58;;;;;;;2.63;2.40;;;;;;;24.94;54.05;101066.91;5064577;28;20035;-28
2022/08/23 09:54:32;;;;;;;2.42;2.20;;;;;;;25.09;54.13;101067.72;5064809;28;20432;-28
2022/08/23 09:57:01;;;;;;;2.33;2.15;;;;;;;25.22;53.99;101068.69;5062227;28;20107;-28
2022/08/23 09:59:26;;;;;;;3.05;2.08;;;;;;;25.35;53.83;101052.50;5062209;28;20031;-27
2022/08/23 10:01:56;;;;;;;2.83;2.20;;;;;;;25.47;52.94;101060.75;5060631;28;20916;-28
2022/08/23 10:04:28;;;;;;;2.88;2.35;;;;;;;25.60;53.63;101058.16;5059783;28;20348;-28
2022/08/23 10:06:54;;;;;;;3.10;2.28;;;;;;;25.76;53.28;101058.00;5063099;28;20025;-28
2022/08/23 10:09:31;;;;;;;3.65;2.08;;;;;;;25.90;53.21;101056.19;5057821;28;20016;-27
2022/08/23 10:11:58;;;;;;;3.65;2.00;;;;;;;26.08;53.09;101056.75;5062234;28;20025;-28
2022/08/23 10:14:26;;;;;;;2.47;2.28;;;;;;;26.23;52.36;101054.81;5062579;28;20035;-28
2022/08/23 10:17:09;;;;;;;2.10;1.90;;;;;;;26.39;52.52;101054.66;5060834;28;20070;-28
2022/08/23 10:19:51;;;;;;;3.63;2.42;;;;;;;26.50;51.06;101057.47;5063032;28;20031;-27
2022/08/23 10:22:19;;;;;;;3.53;2.25;;;;;;;26.59;50.95;101060.47;5059673;28;20439;-28
2022/08/23 10:24:47;;;;;;;2.72;1.90;;;;;;;26.73;50.92;101057.66;5061785;28;20029;-28
2022/08/23 10:30:18;;;;;;;4.25;2.63;;;;;;;27.06;50.66;101059.88;5058545;28;20086;-27
2022/08/23 10:32:50;;;;;;;2.38;1.90;;;;;;;27.12;50.17;101062.13;5059309;28;20024;-27
2022/08/23 10:35:49;;;;;;;2.38;2.17;;;;;;;27.27;49.40;101054.72;5060105;28;20411;-27
2022/08/23 10:38:30;;;;;;;2.60;2.40;;;;;;;27.37;49.23;101050.34;5049010;28;20457;-28
2022/08/23 10:41:12;;;;;;;2.20;2.10;;;;;;;27.47;49.34;101053.22;5061276;28;20025;-28
2022/08/23 10:44:02;;;;;;;2.40;2.30;;;;;;;27.51;48.72;101053.88;5059465;28;20029;-27
2022/08/23 10:46:29;;;;;;;2.70;1.98;;;;;;;27.56;48.89;101050.78;5052085;28;20043;-27
2022/08/23 10:48:57;;;;;;;8.35;2.53;;;;;;;27.64;48.26;101048.44;5059596;28;20047;-28
2022/08/23 10:51:35;;;;;;;2.53;2.30;;;;;;;27.77;48.58;101049.19;5063108;28;20042;-28
2022/08/23 10:54:34;;;;;;;2.05;1.90;;;;;;;27.94;48.04;101046.19;5056873;28;20024;-28
2022/08/23 10:57:02;;;;;;;10.60;3.83;;;;;;;27.59;45.15;101037.91;5058576;28;20025;-26
2022/08/23 10:59:28;;;;;;;10.57;3.85;;;;;;;27.70;46.78;101045.22;5057217;28;20024;-28
2022/08/23 11:02:09;;;;;;;11.15;3.30;;;;;;;27.92;47.12;101041.75;5063638;28;20518;-28
2022/08/23 11:04:38;;;;;;;;;;;;;;;28.04;46.75;101034.50;5058167;28;20035;-27
2022/08/23 11:07:27;;;;;;;8.00;3.28;;;;;;;28.13;46.78;101043.75;5059529;28;19912;-28
2022/08/23 11:09:57;;;;;;;7.97;2.83;;;;;;;28.23;47.35;101041.19;5060963;28;20020;-28
2022/08/23 11:12:25;;;;;;;6.33;2.73;;;;;;;28.32;46.93;101041.47;5061339;28;20056;-28
2022/08/23 11:15:06;;;;;;;6.03;2.55;;;;;;;28.33;46.79;101037.75;5060751;28;20639;-27
2022/08/23 11:17:49;;;;;;;2.47;2.28;;;;;;;28.42;46.03;101048.78;5052871;28;20296;-27
2022/08/23 11:20:55;;;;;;;3.40;2.60;;;;;;;28.53;46.33;101047.03;5059107;28;20052;-27
2022/08/23 11:23:37;;;;;;;3.08;2.75;;;;;;;28.69;46.44;101039.41;5053858;28;20044;-27
2022/08/23 11:26:07;;;;;;;2.47;2.15;;;;;;;28.83;45.93;101036.56;5060759;28;20016;-27
2022/08/23 11:28:44;;;;;;;3.10;2.00;;;;;;;28.98;45.21;101034.47;5056091;28;20032;-27
2022/08/23 11:31:10;;;;;;;4.57;2.30;;;;;;;29.05;45.07;101036.53;5058915;28;20024;-27
2022/08/23 11:34:00;;;;;;;4.73;2.23;;;;;;;29.12;45.12;101036.03;5057778;28;20040;-27
2022/08/23 11:36:27;;;;;;;2.53;2.30;;;;;;;29.16;45.35;101026.63;5048128;28;20278;-27
2022/08/23 11:38:54;;;;;;;4.32;2.38;;;;;;;29.20;45.48;101028.09;5054490;28;20068;-27
2022/08/23 11:41:27;;;;;;;2.35;2.15;;;;;;;29.20;45.23;101023.53;5061120;28;20032;-27
2022/08/23 11:43:55;;;;;;;2.28;2.05;;;;;;;29.25;45.10;101017.72;5059664;28;20086;-27
2022/08/23 11:46:24;;;;;;;4.35;2.55;;;;;;;29.29;44.82;101021.03;5062450;28;20036;-27